sensor_id;sensor_type;location;lat;lon;timestamp;pressure;altitude;pressure_sealevel;temperature;humidity
57248;BME280;55809;46.618;10.764;2023-09-19T00:00:56;92841.16;;;14.58;100.00
57248;BME280;55809;46.618;10.764;2023-09-19T00:03:27;92862.13;;;14.73;100.00
57248;BME280;55809;46.618;10.764;2023-09-19T00:05:55;92865.94;;;14.76;100.00
57248;BME280;55809;46.618;10.764;2023-09-19T00:08:25;92879.19;;;14.90;100.00
57248;BME280;55809;46.618;10.764;2023-09-19T00:10:54;92866.13;;;14.85;100.00
57248;BME280;55809;46.618;10.764;2023-09-19T00:13:23;92873.13;;;14.99;100.00
57248;BME280;55809;46.618;10.764;2023-09-19T00:15:50;92875.19;;;14.95;100.00
57248;BME280;55809;46.618;10.764;2023-09-19T00:18:21;92899.28;;;15.09;100.00
57248;BME280;55809;46.618;10.764;2023-09-19T00:20:57;92843.38;;;14.63;100.00
57248;BME280;55809;46.618;10.764;2023-09-19T00:23:24;92888.97;;;14.88;100.00
57248;BME280;55809;46.618;10.764;2023-09-19T00:26:00;92847.03;;;14.56;100.00
57248;BME280;55809;46.618;10.764;2023-09-19T00:28:30;92810.09;;;14.26;100.00
57248;BME280;55809;46.618;10.764;2023-09-19T00:31:14;92834.19;;;14.40;100.00
57248;BME280;55809;46.618;10.764;2023-09-19T00:33:51;92874.69;;;14.67;100.00
57248;BME280;55809;46.618;10.764;2023-09-19T00:36:22;92876.06;;;14.75;100.00
57248;BME280;55809;46.618;10.764;2023-09-19T00:38:50;92868.16;;;14.81;100.00
57248;BME280;55809;46.618;10.764;2023-09-19T00:41:18;92853.50;;;14.62;100.00
57248;BME280;55809;46.618;10.764;2023-09-19T00:43:48;92870.09;;;14.81;100.00
57248;BME280;55809;46.618;10.764;2023-09-19T00:46:19;92865.56;;;14.61;100.00
57248;BME280;55809;46.618;10.764;2023-09-19T00:48:48;92907.91;;;14.91;100.00
57248;BME280;55809;46.618;10.764;2023-09-19T00:51:23;92913.06;;;14.86;100.00
57248;BME280;55809;46.618;10.764;2023-09-19T00:53:53;92913.16;;;14.82;100.00
57248;BME280;55809;46.618;10.764;2023-09-19T00:56:21;92901.72;;;14.74;100.00
57248;BME280;55809;46.618;10.764;2023-09-19T00:58:53;92890.00;;;14.61;100.00
57248;BME280;55809;46.618;10.764;2023-09-19T01:01:21;92875.44;;;14.35;100.00
57248;BME280;55809;46.618;10.764;2023-09-19T01:03:49;92859.28;;;14.28;100.00
57248;BME280;55809;46.618;10.764;2023-09-19T01:06:39;92888.63;;;14.53;100.00
57248;BME280;55809;46.618;10.764;2023-09-19T01:09:09;92927.84;;;14.85;100.00
57248;BME280;55809;46.618;10.764;2023-09-19T01:11:43;92926.66;;;14.86;100.00
57248;BME280;55809;46.618;10.764;2023-09-19T01:14:31;92921.56;;;14.88;100.00
57248;BME280;55809;46.618;10.764;2023-09-19T01:17:05;92919.53;;;14.92;100.00
57248;BME280;55809;46.618;10.764;2023-09-19T01:20:03;92926.41;;;14.96;100.00
57248;BME280;55809;46.618;10.764;2023-09-19T01:22:40;92922.91;;;14.96;100.00
57248;BME280;55809;46.618;10.764;2023-09-19T01:28:30;92887.88;;;14.69;100.00
57248;BME280;55809;46.618;10.764;2023-09-19T01:31:06;92913.34;;;14.91;100.00
57248;BME280;55809;46.618;10.764;2023-09-19T01:33:55;92918.41;;;14.89;100.00
57248;BME280;55809;46.618;10.764;2023-09-19T01:36:33;92918.16;;;14.84;100.00
57248;BME280;55809;46.618;10.764;2023-09-19T01:39:02;92926.84;;;14.78;100.00
57248;BME280;55809;46.618;10.764;2023-09-19T01:41:45;92914.78;;;14.80;100.00
57248;BME280;55809;46.618;10.764;2023-09-19T01:44:24;92918.34;;;14.76;100.00
57248;BME280;55809;46.618;10.764;2023-09-19T01:46:58;92913.44;;;14.71;100.00
57248;BME280;55809;46.618;10.764;2023-09-19T01:49:33;92892.38;;;14.59;100.00
57248;BME280;55809;46.618;10.764;2023-09-19T01:52:08;92916.16;;;14.71;100.00
57248;BME280;55809;46.618;10.764;2023-09-19T01:54:42;92921.56;;;14.71;100.00
57248;BME280;55809;46.618;10.764;2023-09-19T01:57:17;92923.53;;;14.71;100.00
57248;BME280;55809;46.618;10.764;2023-09-19T01:59:57;92890.63;;;14.49;100.00
57248;BME280;55809;46.618;10.764;2023-09-19T02:02:34;92927.09;;;14.68;100.00
57248;BME280;55809;46.618;10.764;2023-09-19T02:05:01;92928.97;;;14.71;100.00
57248;BME280;55809;46.618;10.764;2023-09-19T02:07:32;92908.31;;;14.73;100.00
57248;BME280;55809;46.618;10.764;2023-09-19T02:09:59;92897.13;;;14.71;100.00
57248;BME280;55809;46.618;10.764;2023-09-19T02:12:26;92894.50;;;14.84;100.00
57248;BME280;55809;46.618;10.764;2023-09-19T02:14:54;92886.66;;;14.86;100.00
57248;BME280;55809;46.618;10.764;2023-09-19T02:17:24;92872.81;;;14.81;100.00
57248;BME280;55809;46.618;10.764;2023-09-19T02:19:54;92891.97;;;15.06;100.00
57248;BME280;55809;46.618;10.764;2023-09-19T02:22:22;92890.47;;;15.05;100.00
57248;BME280;55809;46.618;10.764;2023-09-19T02:24:55;92889.88;;;14.97;100.00
57248;BME280;55809;46.618;10.764;2023-09-19T02:27:24;92894.22;;;14.95;100.00
57248;BME280;55809;46.618;10.764;2023-09-19T02:29:58;92899.84;;;14.88;100.00
57248;BME280;55809;46.618;10.764;2023-09-19T02:32:30;92901.53;;;14.82;100.00
57248;BME280;55809;46.618;10.764;2023-09-19T02:35:02;92899.75;;;14.75;100.00
57248;BME280;55809;46.618;10.764;2023-09-19T02:37:31;92893.56;;;14.74;100.00
57248;BME280;55809;46.618;10.764;2023-09-19T02:39:58;92894.50;;;14.68;100.00
57248;BME280;55809;46.618;10.764;2023-09-19T02:42:27;92898.91;;;14.78;100.00
57248;BME280;55809;46.618;10.764;2023-09-19T02:45:00;92898.56;;;14.76;100.00
57248;BME280;55809;46.618;10.764;2023-09-19T02:47:29;92891.09;;;14.64;100.00
57248;BME280;55809;46.618;10.764;2023-09-19T02:49:57;92904.34;;;14.62;100.00
57248;BME280;55809;46.618;10.764;2023-09-19T02:52:34;92873.56;;;14.32;100.00
57248;BME280;55809;46.618;10.764;2023-09-19T02:55:01;92906.53;;;14.50;100.00
57248;BME280;55809;46.618;10.764;2023-09-19T02:57:31;92905.50;;;14.61;100.00
57248;BME280;55809;46.618;10.764;2023-09-19T02:59:59;92904.25;;;14.65;100.00
57248;BME280;55809;46.618;10.764;2023-09-19T03:02:30;92900.03;;;14.64;100.00
57248;BME280;55809;46.618;10.764;2023-09-19T03:05:16;92912.13;;;14.60;100.00
57248;BME280;55809;46.618;10.764;2023-09-19T03:08:09;92909.66;;;14.49;100.00
57248;BME280;55809;46.618;10.764;2023-09-19T03:10:56;92908.97;;;14.45;100.00
57248;BME280;55809;46.618;10.764;2023-09-19T03:13:36;92906.75;;;14.40;100.00
57248;BME280;55809;46.618;10.764;2023-09-19T03:16:22;92905.88;;;14.26;100.00
57248;BME280;55809;46.618;10.764;2023-09-19T03:18:51;92903.06;;;14.14;100.00
57248;BME280;55809;46.618;10.764;2023-09-19T03:21:18;92878.69;;;13.94;100.00
57248;BME280;55809;46.618;10.764;2023-09-19T03:24:16;92918.22;;;14.11;100.00
57248;BME280;55809;46.618;10.764;2023-09-19T03:26:45;92888.00;;;13.93;100.00
57248;BME280;55809;46.618;10.764;2023-09-19T03:29:19;92901.00;;;14.01;100.00
57248;BME280;55809;46.618;10.764;2023-09-19T03:31:46;92884.19;;;13.90;100.00
57248;BME280;55809;46.618;10.764;2023-09-19T03:34:14;92906.22;;;14.12;100.00
57248;BME280;55809;46.618;10.764;2023-09-19T03:36:49;92908.13;;;14.31;100.00
57248;BME280;55809;46.618;10.764;2023-09-19T03:39:24;92914.47;;;14.25;100.00
57248;BME280;55809;46.618;10.764;2023-09-19T03:42:20;92903.91;;;14.11;100.00
57248;BME280;55809;46.618;10.764;2023-09-19T03:44:52;92908.69;;;14.23;100.00
57248;BME280;55809;46.618;10.764;2023-09-19T03:47:20;92903.06;;;14.14;100.00
57248;BME280;55809;46.618;10.764;2023-09-19T03:49:47;92907.03;;;14.09;100.00
57248;BME280;55809;46.618;10.764;2023-09-19T03:52:14;92884.66;;;14.05;100.00
57248;BME280;55809;46.618;10.764;2023-09-19T03:54:58;92897.47;;;14.21;100.00
57248;BME280;55809;46.618;10.764;2023-09-19T03:57:32;92901.47;;;14.16;100.00
57248;BME280;55809;46.618;10.764;2023-09-19T04:00:02;92897.31;;;14.12;100.00
57248;BME280;55809;46.618;10.764;2023-09-19T04:02:31;92898.63;;;14.03;100.00
57248;BME280;55809;46.618;10.764;2023-09-19T04:04:59;92889.25;;;13.88;100.00
57248;BME280;55809;46.618;10.764;2023-09-19T04:07:30;92903.03;;;13.97;100.00
57248;BME280;55809;46.618;10.764;2023-09-19T04:09:58;92901.22;;;13.91;100.00
57248;BME280;55809;46.618;10.764;2023-09-19T04:12:26;92912.06;;;13.91;100.00
57248;BME280;55809;46.618;10.764;2023-09-19T04:14:57;92909.56;;;14.00;100.00
57248;BME280;55809;46.618;10.764;2023-09-19T04:17:34;92908.50;;;14.14;100.00
57248;BME280;55809;46.618;10.764;2023-09-19T04:20:02;92915.78;;;14.17;100.00
57248;BME280;55809;46.618;10.764;2023-09-19T04:22:34;92914.28;;;14.16;100.00
57248;BME280;55809;46.618;10.764;2023-09-19T04:25:22;92916.34;;;14.08;100.00
57248;BME280;55809;46.618;10.764;2023-09-19T04:27:55;92916.03;;;14.06;100.00
57248;BME280;55809;46.618;10.764;2023-09-19T04:30:23;92922.78;;;13.98;100.00
57248;BME280;55809;46.618;10.764;2023-09-19T04:32:52;92918.97;;;13.95;100.00
57248;BME280;55809;46.618;10.764;2023-09-19T04:35:19;92928.13;;;14.01;100.00
57248;BME280;55809;46.618;10.764;2023-09-19T04:37:46;92925.16;;;13.96;100.00
57248;BME280;55809;46.618;10.764;2023-09-19T04:40:19;92924.81;;;13.94;100.00
57248;BME280;55809;46.618;10.764;2023-09-19T04:42:55;92936.50;;;13.91;100.00
57248;BME280;55809;46.618;10.764;2023-09-19T04:45:23;92925.59;;;13.74;100.00
57248;BME280;55809;46.618;10.764;2023-09-19T04:47:53;92941.31;;;13.83;100.00
57248;BME280;55809;46.618;10.764;2023-09-19T04:50:22;92940.13;;;13.84;100.00
57248;BME280;55809;46.618;10.764;2023-09-19T04:52:54;92928.22;;;13.78;100.00
57248;BME280;55809;46.618;10.764;2023-09-19T04:55:22;92949.38;;;13.87;100.00
57248;BME280;55809;46.618;10.764;2023-09-19T04:57:51;92938.59;;;13.83;100.00
57248;BME280;55809;46.618;10.764;2023-09-19T05:00:20;92954.88;;;13.83;100.00
57248;BME280;55809;46.618;10.764;2023-09-19T05:02:49;92955.63;;;13.83;100.00
57248;BME280;55809;46.618;10.764;2023-09-19T05:05:18;92961.13;;;13.80;100.00
57248;BME280;55809;46.618;10.764;2023-09-19T05:07:45;92961.81;;;13.84;100.00
57248;BME280;55809;46.618;10.764;2023-09-19T05:10:17;92963.00;;;13.83;100.00
57248;BME280;55809;46.618;10.764;2023-09-19T05:13:00;92976.78;;;13.92;100.00
57248;BME280;55809;46.618;10.764;2023-09-19T05:15:30;92974.09;;;13.92;100.00
57248;BME280;55809;46.618;10.764;2023-09-19T05:18:03;92974.47;;;13.91;100.00
57248;BME280;55809;46.618;10.764;2023-09-19T05:20:32;92953.00;;;13.80;100.00
57248;BME280;55809;46.618;10.764;2023-09-19T05:23:06;92973.16;;;13.99;100.00
57248;BME280;55809;46.618;10.764;2023-09-19T05:25:39;92976.34;;;14.14;100.00
57248;BME280;55809;46.618;10.764;2023-09-19T05:28:10;92967.50;;;14.29;100.00
57248;BME280;55809;46.618;10.764;2023-09-19T05:30:40;92968.44;;;14.39;100.00
57248;BME280;55809;46.618;10.764;2023-09-19T05:33:08;92966.00;;;14.45;100.00
57248;BME280;55809;46.618;10.764;2023-09-19T05:35:36;92964.31;;;14.51;100.00
57248;BME280;55809;46.618;10.764;2023-09-19T05:38:07;92981.56;;;14.61;100.00
57248;BME280;55809;46.618;10.764;2023-09-19T05:40:37;92982.59;;;14.67;100.00
57248;BME280;55809;46.618;10.764;2023-09-19T05:43:09;92935.69;;;14.46;100.00
57248;BME280;55809;46.618;10.764;2023-09-19T05:45:36;92980.66;;;15.00;100.00
57248;BME280;55809;46.618;10.764;2023-09-19T05:48:08;92976.88;;;15.14;100.00
57248;BME280;55809;46.618;10.764;2023-09-19T05:50:36;92979.03;;;15.35;100.00
57248;BME280;55809;46.618;10.764;2023-09-19T05:53:03;92958.44;;;15.51;100.00
57248;BME280;55809;46.618;10.764;2023-09-19T05:55:30;92977.94;;;16.07;100.00
57248;BME280;55809;46.618;10.764;2023-09-19T05:57:58;92993.06;;;16.50;100.00
57248;BME280;55809;46.618;10.764;2023-09-19T06:00:26;92983.94;;;16.82;100.00
57248;BME280;55809;46.618;10.764;2023-09-19T06:02:56;92985.13;;;17.07;100.00
57248;BME280;55809;46.618;10.764;2023-09-19T06:05:24;92960.38;;;17.01;100.00
57248;BME280;55809;46.618;10.764;2023-09-19T06:07:52;92988.06;;;17.25;100.00
57248;BME280;55809;46.618;10.764;2023-09-19T06:10:19;92965.25;;;17.19;100.00
57248;BME280;55809;46.618;10.764;2023-09-19T06:12:48;93000.53;;;17.61;100.00
57248;BME280;55809;46.618;10.764;2023-09-19T06:15:15;92989.91;;;17.63;100.00
57248;BME280;55809;46.618;10.764;2023-09-19T06:17:48;92997.66;;;17.77;100.00
57248;BME280;55809;46.618;10.764;2023-09-19T06:20:16;92999.38;;;17.84;100.00
57248;BME280;55809;46.618;10.764;2023-09-19T06:22:45;92995.69;;;17.78;100.00
57248;BME280;55809;46.618;10.764;2023-09-19T06:25:13;93000.28;;;17.81;100.00
57248;BME280;55809;46.618;10.764;2023-09-19T06:27:44;93003.50;;;17.89;100.00
57248;BME280;55809;46.618;10.764;2023-09-19T06:30:12;92985.75;;;17.84;100.00
57248;BME280;55809;46.618;10.764;2023-09-19T06:32:40;93012.88;;;18.00;100.00
57248;BME280;55809;46.618;10.764;2023-09-19T06:35:11;93007.84;;;17.99;100.00
57248;BME280;55809;46.618;10.764;2023-09-19T06:37:39;93001.63;;;18.20;100.00
57248;BME280;55809;46.618;10.764;2023-09-19T06:40:08;92998.22;;;18.60;100.00
57248;BME280;55809;46.618;10.764;2023-09-19T06:42:39;92997.63;;;18.87;100.00
57248;BME280;55809;46.618;10.764;2023-09-19T06:45:08;92976.34;;;18.91;100.00
57248;BME280;55809;46.618;10.764;2023-09-19T06:47:37;92997.59;;;19.18;100.00
57248;BME280;55809;46.618;10.764;2023-09-19T06:50:04;92992.75;;;19.32;100.00
57248;BME280;55809;46.618;10.764;2023-09-19T06:52:39;92973.06;;;19.06;100.00
57248;BME280;55809;46.618;10.764;2023-09-19T06:55:07;93000.81;;;19.44;100.00
57248;BME280;55809;46.618;10.764;2023-09-19T06:57:35;92991.47;;;19.64;100.00
57248;BME280;55809;46.618;10.764;2023-09-19T07:00:02;92999.72;;;19.91;100.00
57248;BME280;55809;46.618;10.764;2023-09-19T07:02:34;93008.69;;;19.83;100.00
57248;BME280;55809;46.618;10.764;2023-09-19T07:05:01;93002.28;;;20.13;100.00
57248;BME280;55809;46.618;10.764;2023-09-19T07:07:28;93010.19;;;20.30;100.00
57248;BME280;55809;46.618;10.764;2023-09-19T07:09:57;93014.31;;;20.44;100.00
57248;BME280;55809;46.618;10.764;2023-09-19T07:12:24;93014.28;;;20.71;100.00
57248;BME280;55809;46.618;10.764;2023-09-19T07:14:51;93016.50;;;20.91;100.00
57248;BME280;55809;46.618;10.764;2023-09-19T07:17:18;93017.94;;;21.20;100.00
57248;BME280;55809;46.618;10.764;2023-09-19T07:19:48;92999.06;;;21.13;100.00
57248;BME280;55809;46.618;10.764;2023-09-19T07:22:15;93023.63;;;21.49;100.00
57248;BME280;55809;46.618;10.764;2023-09-19T07:24:43;93017.59;;;21.60;100.00
57248;BME280;55809;46.618;10.764;2023-09-19T07:27:11;93017.66;;;21.75;100.00
57248;BME280;55809;46.618;10.764;2023-09-19T07:29:38;93009.78;;;21.92;100.00
57248;BME280;55809;46.618;10.764;2023-09-19T07:32:05;93006.72;;;21.90;100.00
57248;BME280;55809;46.618;10.764;2023-09-19T07:34:33;92999.00;;;21.79;100.00
57248;BME280;55809;46.618;10.764;2023-09-19T07:37:01;93010.22;;;21.90;100.00
57248;BME280;55809;46.618;10.764;2023-09-19T07:39:29;93010.38;;;21.72;100.00
57248;BME280;55809;46.618;10.764;2023-09-19T07:41:56;93012.59;;;21.97;100.00
57248;BME280;55809;46.618;10.764;2023-09-19T07:44:25;93006.19;;;22.00;100.00
57248;BME280;55809;46.618;10.764;2023-09-19T07:46:52;93019.84;;;22.10;100.00
57248;BME280;55809;46.618;10.764;2023-09-19T07:49:20;93015.75;;;22.29;100.00
57248;BME280;55809;46.618;10.764;2023-09-19T07:51:47;93017.88;;;22.49;100.00
57248;BME280;55809;46.618;10.764;2023-09-19T07:54:14;93001.06;;;22.47;100.00
57248;BME280;55809;46.618;10.764;2023-09-19T07:56:42;93004.41;;;22.66;100.00
57248;BME280;55809;46.618;10.764;2023-09-19T07:59:11;93018.44;;;22.83;100.00
57248;BME280;55809;46.618;10.764;2023-09-19T08:01:40;93018.06;;;22.90;100.00
57248;BME280;55809;46.618;10.764;2023-09-19T08:04:09;93011.28;;;23.00;100.00
57248;BME280;55809;46.618;10.764;2023-09-19T08:06:36;93019.59;;;23.21;100.00
57248;BME280;55809;46.618;10.764;2023-09-19T08:09:04;93013.59;;;23.37;100.00
57248;BME280;55809;46.618;10.764;2023-09-19T08:11:35;93009.03;;;23.34;100.00
57248;BME280;55809;46.618;10.764;2023-09-19T08:14:02;93010.22;;;23.48;100.00
57248;BME280;55809;46.618;10.764;2023-09-19T08:16:31;93009.06;;;23.69;100.00
57248;BME280;55809;46.618;10.764;2023-09-19T08:18:59;93005.69;;;23.65;100.00
57248;BME280;55809;46.618;10.764;2023-09-19T08:21:26;93000.59;;;23.73;100.00
57248;BME280;55809;46.618;10.764;2023-09-19T08:23:55;93016.91;;;23.76;100.00
57248;BME280;55809;46.618;10.764;2023-09-19T08:26:22;93020.31;;;23.86;100.00
57248;BME280;55809;46.618;10.764;2023-09-19T08:28:50;93010.72;;;24.02;100.00
57248;BME280;55809;46.618;10.764;2023-09-19T08:31:18;92997.13;;;23.98;100.00
57248;BME280;55809;46.618;10.764;2023-09-19T08:33:46;93017.28;;;24.45;100.00
57248;BME280;55809;46.618;10.764;2023-09-19T08:36:18;93019.84;;;24.54;100.00
57248;BME280;55809;46.618;10.764;2023-09-19T08:38:45;93012.47;;;24.66;100.00
57248;BME280;55809;46.618;10.764;2023-09-19T08:41:12;93014.25;;;24.69;100.00
57248;BME280;55809;46.618;10.764;2023-09-19T08:43:39;93019.22;;;24.65;100.00
57248;BME280;55809;46.618;10.764;2023-09-19T08:46:10;93009.31;;;24.32;100.00
57248;BME280;55809;46.618;10.764;2023-09-19T08:48:42;93009.00;;;24.45;100.00
57248;BME280;55809;46.618;10.764;2023-09-19T08:51:21;93008.06;;;24.33;100.00
57248;BME280;55809;46.618;10.764;2023-09-19T08:54:00;93003.47;;;24.25;100.00
57248;BME280;55809;46.618;10.764;2023-09-19T08:56:29;92992.66;;;24.42;100.00
57248;BME280;55809;46.618;10.764;2023-09-19T08:59:00;93004.78;;;24.29;100.00
57248;BME280;55809;46.618;10.764;2023-09-19T09:01:29;93000.94;;;23.80;100.00
57248;BME280;55809;46.618;10.764;2023-09-19T09:03:58;93003.06;;;23.71;100.00
57248;BME280;55809;46.618;10.764;2023-09-19T09:06:27;92980.75;;;23.89;100.00
57248;BME280;55809;46.618;10.764;2023-09-19T09:08:55;93000.50;;;23.87;100.00
57248;BME280;55809;46.618;10.764;2023-09-19T09:11:22;92990.66;;;24.01;100.00
57248;BME280;55809;46.618;10.764;2023-09-19T09:13:50;92990.38;;;24.20;100.00
57248;BME280;55809;46.618;10.764;2023-09-19T09:16:17;92983.84;;;23.97;100.00
57248;BME280;55809;46.618;10.764;2023-09-19T09:18:44;92984.59;;;23.97;100.00
57248;BME280;55809;46.618;10.764;2023-09-19T09:21:11;92983.28;;;24.13;100.00
57248;BME280;55809;46.618;10.764;2023-09-19T09:23:41;92978.22;;;24.52;100.00
57248;BME280;55809;46.618;10.764;2023-09-19T09:26:08;92978.53;;;24.40;100.00
57248;BME280;55809;46.618;10.764;2023-09-19T09:28:36;92978.63;;;24.45;100.00
57248;BME280;55809;46.618;10.764;2023-09-19T09:31:22;92970.47;;;24.56;100.00
57248;BME280;55809;46.618;10.764;2023-09-19T09:33:53;92961.22;;;24.60;100.00
57248;BME280;55809;46.618;10.764;2023-09-19T09:36:36;92949.41;;;24.59;100.00
57248;BME280;55809;46.618;10.764;2023-09-19T09:39:06;92961.03;;;24.69;100.00
57248;BME280;55809;46.618;10.764;2023-09-19T09:41:44;92966.78;;;24.65;100.00
57248;BME280;55809;46.618;10.764;2023-09-19T09:44:15;92966.56;;;24.69;100.00
57248;BME280;55809;46.618;10.764;2023-09-19T09:46:43;92957.31;;;24.46;100.00
57248;BME280;55809;46.618;10.764;2023-09-19T09:49:48;92956.72;;;24.62;100.00
57248;BME280;55809;46.618;10.764;2023-09-19T09:52:44;92961.91;;;24.08;100.00
57248;BME280;55809;46.618;10.764;2023-09-19T09:55:12;92960.09;;;24.25;100.00
57248;BME280;55809;46.618;10.764;2023-09-19T09:57:39;92955.03;;;23.77;100.00
57248;BME280;55809;46.618;10.764;2023-09-19T10:00:10;92954.59;;;24.05;100.00
57248;BME280;55809;46.618;10.764;2023-09-19T10:02:45;92961.81;;;24.23;100.00
57248;BME280;55809;46.618;10.764;2023-09-19T10:05:14;92954.78;;;24.22;100.00
57248;BME280;55809;46.618;10.764;2023-09-19T10:07:46;92957.38;;;24.31;100.00
57248;BME280;55809;46.618;10.764;2023-09-19T10:10:29;92952.06;;;24.48;100.00
57248;BME280;55809;46.618;10.764;2023-09-19T10:13:05;92946.91;;;24.61;100.00
57248;BME280;55809;46.618;10.764;2023-09-19T10:15:33;92950.38;;;24.56;100.00
57248;BME280;55809;46.618;10.764;2023-09-19T10:18:04;92939.81;;;24.28;100.00
57248;BME280;55809;46.618;10.764;2023-09-19T10:20:37;92936.38;;;24.60;100.00
57248;BME280;55809;46.618;10.764;2023-09-19T10:23:09;92934.56;;;24.83;100.00
57248;BME280;55809;46.618;10.764;2023-09-19T10:25:41;92937.72;;;24.70;100.00
57248;BME280;55809;46.618;10.764;2023-09-19T10:28:09;92930.69;;;24.69;100.00
57248;BME280;55809;46.618;10.764;2023-09-19T10:30:38;92928.28;;;24.82;100.00
57248;BME280;55809;46.618;10.764;2023-09-19T10:33:11;92910.91;;;24.76;100.00
57248;BME280;55809;46.618;10.764;2023-09-19T10:35:39;92935.59;;;24.91;100.00
57248;BME280;55809;46.618;10.764;2023-09-19T10:38:09;92934.78;;;25.11;100.00
57248;BME280;55809;46.618;10.764;2023-09-19T10:40:38;92924.84;;;25.24;100.00
57248;BME280;55809;46.618;10.764;2023-09-19T10:43:12;92924.50;;;25.54;100.00
57248;BME280;55809;46.618;10.764;2023-09-19T10:45:40;92925.75;;;24.78;100.00
57248;BME280;55809;46.618;10.764;2023-09-19T10:48:08;92928.78;;;23.82;100.00
57248;BME280;55809;46.618;10.764;2023-09-19T10:50:41;92920.94;;;23.39;100.00
57248;BME280;55809;46.618;10.764;2023-09-19T10:53:11;92918.78;;;23.08;100.00
57248;BME280;55809;46.618;10.764;2023-09-19T10:55:39;92913.97;;;22.74;100.00
57248;BME280;55809;46.618;10.764;2023-09-19T10:58:07;92912.59;;;22.19;100.00
57248;BME280;55809;46.618;10.764;2023-09-19T11:00:53;92894.88;;;21.81;100.00
57248;BME280;55809;46.618;10.764;2023-09-19T11:03:21;92907.91;;;22.10;100.00
57248;BME280;55809;46.618;10.764;2023-09-19T11:06:06;92905.22;;;22.25;100.00
57248;BME280;55809;46.618;10.764;2023-09-19T11:09:00;92906.97;;;22.73;100.00
57248;BME280;55809;46.618;10.764;2023-09-19T11:11:46;92902.56;;;23.31;100.00
57248;BME280;55809;46.618;10.764;2023-09-19T11:14:29;92907.47;;;23.62;100.00
57248;BME280;55809;46.618;10.764;2023-09-19T11:20:27;92898.94;;;23.60;100.00
57248;BME280;55809;46.618;10.764;2023-09-19T11:23:18;92887.00;;;23.48;100.00
57248;BME280;55809;46.618;10.764;2023-09-19T11:25:50;92889.16;;;23.79;100.00
57248;BME280;55809;46.618;10.764;2023-09-19T11:28:34;92894.09;;;23.96;100.00
57248;BME280;55809;46.618;10.764;2023-09-19T11:34:44;92865.97;;;24.18;100.00
57248;BME280;55809;46.618;10.764;2023-09-19T11:40:44;92880.66;;;24.55;100.00
57248;BME280;55809;46.618;10.764;2023-09-19T11:43:33;92872.22;;;24.70;100.00
57248;BME280;55809;46.618;10.764;2023-09-19T11:46:06;92874.78;;;24.42;100.00
57248;BME280;55809;46.618;10.764;2023-09-19T11:48:43;92874.00;;;24.16;100.00
57248;BME280;55809;46.618;10.764;2023-09-19T11:51:11;92874.22;;;24.12;100.00
57248;BME280;55809;46.618;10.764;2023-09-19T11:53:45;92867.19;;;24.11;100.00
57248;BME280;55809;46.618;10.764;2023-09-19T11:56:15;92852.09;;;23.39;100.00
57248;BME280;55809;46.618;10.764;2023-09-19T11:58:43;92857.19;;;23.26;100.00
57248;BME280;55809;46.618;10.764;2023-09-19T12:01:13;92853.88;;;23.22;100.00
57248;BME280;55809;46.618;10.764;2023-09-19T12:03:42;92816.72;;;23.12;100.00
57248;BME280;55809;46.618;10.764;2023-09-19T12:06:14;92832.41;;;23.47;100.00
57248;BME280;55809;46.618;10.764;2023-09-19T12:08:42;92842.72;;;23.72;100.00
57248;BME280;55809;46.618;10.764;2023-09-19T12:11:15;92853.28;;;23.53;100.00
57248;BME280;55809;46.618;10.764;2023-09-19T12:13:43;92847.75;;;23.53;100.00
57248;BME280;55809;46.618;10.764;2023-09-19T12:16:13;92823.38;;;23.26;100.00
57248;BME280;55809;46.618;10.764;2023-09-19T12:18:43;92849.69;;;23.47;100.00
57248;BME280;55809;46.618;10.764;2023-09-19T12:21:28;92844.66;;;23.46;100.00
57248;BME280;55809;46.618;10.764;2023-09-19T12:24:06;92836.19;;;23.49;100.00
57248;BME280;55809;46.618;10.764;2023-09-19T12:26:43;92831.50;;;23.14;100.00
57248;BME280;55809;46.618;10.764;2023-09-19T12:29:14;92814.25;;;22.93;100.00
57248;BME280;55809;46.618;10.764;2023-09-19T12:31:53;92832.72;;;22.93;100.00
57248;BME280;55809;46.618;10.764;2023-09-19T12:34:27;92824.00;;;22.80;100.00
57248;BME280;55809;46.618;10.764;2023-09-19T12:37:07;92823.31;;;22.64;100.00
57248;BME280;55809;46.618;10.764;2023-09-19T12:39:50;92830.88;;;22.69;100.00
57248;BME280;55809;46.618;10.764;2023-09-19T12:42:22;92826.84;;;22.50;100.00
57248;BME280;55809;46.618;10.764;2023-09-19T12:44:49;92827.31;;;22.48;100.00
57248;BME280;55809;46.618;10.764;2023-09-19T12:47:20;92832.38;;;22.35;100.00
57248;BME280;55809;46.618;10.764;2023-09-19T12:50:09;92818.88;;;22.08;100.00
57248;BME280;55809;46.618;10.764;2023-09-19T12:52:45;92824.59;;;21.89;100.00
57248;BME280;55809;46.618;10.764;2023-09-19T12:55:24;92807.63;;;21.76;100.00
57248;BME280;55809;46.618;10.764;2023-09-19T12:58:07;92823.09;;;21.88;100.00
57248;BME280;55809;46.618;10.764;2023-09-19T13:00:36;92791.41;;;21.78;100.00
57248;BME280;55809;46.618;10.764;2023-09-19T13:03:12;92818.72;;;21.96;100.00
57248;BME280;55809;46.618;10.764;2023-09-19T13:05:51;92817.19;;;22.10;100.00
57248;BME280;55809;46.618;10.764;2023-09-19T13:08:24;92787.34;;;22.03;100.00
57248;BME280;55809;46.618;10.764;2023-09-19T13:11:08;92800.88;;;22.07;100.00
57248;BME280;55809;46.618;10.764;2023-09-19T13:13:41;92784.88;;;22.05;100.00
57248;BME280;55809;46.618;10.764;2023-09-19T13:16:09;92788.84;;;22.04;100.00
57248;BME280;55809;46.618;10.764;2023-09-19T13:18:44;92782.63;;;22.18;100.00